sensor_id;sensor_type;location;lat;lon;timestamp;temperature;humidity
20973;DHT22;10645;52.370;13.314;2022-10-18T00:00:41;13.00;99.90
20973;DHT22;10645;52.370;13.314;2022-10-18T00:03:07;13.00;99.90
20973;DHT22;10645;52.370;13.314;2022-10-18T00:05:34;13.00;99.90
20973;DHT22;10645;52.370;13.314;2022-10-18T00:08:00;13.00;99.90
20973;DHT22;10645;52.370;13.314;2022-10-18T00:10:26;13.10;99.90
20973;DHT22;10645;52.370;13.314;2022-10-18T00:12:52;13.20;99.90
20973;DHT22;10645;52.370;13.314;2022-10-18T00:15:19;13.20;99.90
20973;DHT22;10645;52.370;13.314;2022-10-18T00:17:45;13.30;99.90
20973;DHT22;10645;52.370;13.314;2022-10-18T00:20:13;13.30;99.90
20973;DHT22;10645;52.370;13.314;2022-10-18T00:22:40;13.30;99.90
20973;DHT22;10645;52.370;13.314;2022-10-18T00:25:07;13.30;99.90
20973;DHT22;10645;52.370;13.314;2022-10-18T00:27:33;13.40;99.90
20973;DHT22;10645;52.370;13.314;2022-10-18T00:29:59;13.40;99.90
20973;DHT22;10645;52.370;13.314;2022-10-18T00:32:26;13.40;99.90
20973;DHT22;10645;52.370;13.314;2022-10-18T00:34:52;13.40;99.90
20973;DHT22;10645;52.370;13.314;2022-10-18T00:37:18;13.40;99.90
20973;DHT22;10645;52.370;13.314;2022-10-18T00:39:44;13.40;99.90
20973;DHT22;10645;52.370;13.314;2022-10-18T00:42:15;13.50;99.90
20973;DHT22;10645;52.370;13.314;2022-10-18T00:47:10;13.40;99.90
20973;DHT22;10645;52.370;13.314;2022-10-18T00:49:40;13.40;99.90
20973;DHT22;10645;52.370;13.314;2022-10-18T00:52:10;13.40;99.90
20973;DHT22;10645;52.370;13.314;2022-10-18T00:54:40;13.40;99.90
20973;DHT22;10645;52.370;13.314;2022-10-18T00:57:07;13.40;99.90
20973;DHT22;10645;52.370;13.314;2022-10-18T00:59:33;13.50;99.90
20973;DHT22;10645;52.370;13.314;2022-10-18T01:02:00;13.50;99.90
20973;DHT22;10645;52.370;13.314;2022-10-18T01:04:26;13.50;99.90
20973;DHT22;10645;52.370;13.314;2022-10-18T01:07:14;13.60;99.90
20973;DHT22;10645;52.370;13.314;2022-10-18T01:09:58;13.60;99.90
20973;DHT22;10645;52.370;13.314;2022-10-18T01:15:29;13.60;99.90
20973;DHT22;10645;52.370;13.314;2022-10-18T01:18:24;13.50;99.90
20973;DHT22;10645;52.370;13.314;2022-10-18T01:21:03;13.50;99.90
20973;DHT22;10645;52.370;13.314;2022-10-18T01:29:42;13.50;99.90
20973;DHT22;10645;52.370;13.314;2022-10-18T01:32:16;13.70;99.90
20973;DHT22;10645;52.370;13.314;2022-10-18T01:34:44;13.80;99.90
20973;DHT22;10645;52.370;13.314;2022-10-18T01:37:14;13.90;99.90
20973;DHT22;10645;52.370;13.314;2022-10-18T01:39:45;14.00;99.90
20973;DHT22;10645;52.370;13.314;2022-10-18T01:42:13;14.20;99.90
20973;DHT22;10645;52.370;13.314;2022-10-18T01:44:43;14.40;99.90
20973;DHT22;10645;52.370;13.314;2022-10-18T01:47:12;14.60;99.90
20973;DHT22;10645;52.370;13.314;2022-10-18T01:49:38;14.70;99.90
20973;DHT22;10645;52.370;13.314;2022-10-18T01:52:05;14.80;99.90
20973;DHT22;10645;52.370;13.314;2022-10-18T01:54:34;15.00;99.90
20973;DHT22;10645;52.370;13.314;2022-10-18T01:57:28;15.10;99.90
20973;DHT22;10645;52.370;13.314;2022-10-18T02:00:22;15.20;99.90
20973;DHT22;10645;52.370;13.314;2022-10-18T02:05:42;15.40;99.90
20973;DHT22;10645;52.370;13.314;2022-10-18T02:10:48;15.50;99.90
20973;DHT22;10645;52.370;13.314;2022-10-18T02:13:18;15.60;99.90
20973;DHT22;10645;52.370;13.314;2022-10-18T02:15:47;15.60;99.90
20973;DHT22;10645;52.370;13.314;2022-10-18T02:18:22;15.70;99.90
20973;DHT22;10645;52.370;13.314;2022-10-18T02:20:50;15.80;99.90
20973;DHT22;10645;52.370;13.314;2022-10-18T02:23:19;15.70;99.90
20973;DHT22;10645;52.370;13.314;2022-10-18T02:25:46;15.70;99.90
20973;DHT22;10645;52.370;13.314;2022-10-18T02:28:13;15.80;99.90
20973;DHT22;10645;52.370;13.314;2022-10-18T02:31:02;15.80;99.90
20973;DHT22;10645;52.370;13.314;2022-10-18T02:33:52;15.80;99.90
20973;DHT22;10645;52.370;13.314;2022-10-18T02:36:41;15.90;99.90
20973;DHT22;10645;52.370;13.314;2022-10-18T02:39:22;15.90;99.90
20973;DHT22;10645;52.370;13.314;2022-10-18T02:41:50;15.90;99.90
20973;DHT22;10645;52.370;13.314;2022-10-18T02:44:17;16.00;99.90
20973;DHT22;10645;52.370;13.314;2022-10-18T02:46:44;15.90;99.90
20973;DHT22;10645;52.370;13.314;2022-10-18T02:49:10;15.90;99.90
20973;DHT22;10645;52.370;13.314;2022-10-18T02:51:37;15.90;99.90
20973;DHT22;10645;52.370;13.314;2022-10-18T02:54:03;16.00;99.90
20973;DHT22;10645;52.370;13.314;2022-10-18T02:56:30;16.00;99.90
20973;DHT22;10645;52.370;13.314;2022-10-18T02:58:56;16.00;99.90
20973;DHT22;10645;52.370;13.314;2022-10-18T03:01:22;16.00;99.90
20973;DHT22;10645;52.370;13.314;2022-10-18T03:03:48;16.00;99.90
20973;DHT22;10645;52.370;13.314;2022-10-18T03:06:14;16.00;99.90
20973;DHT22;10645;52.370;13.314;2022-10-18T03:08:40;16.00;99.90
20973;DHT22;10645;52.370;13.314;2022-10-18T03:11:06;16.00;99.90
20973;DHT22;10645;52.370;13.314;2022-10-18T03:13:33;16.00;99.90
20973;DHT22;10645;52.370;13.314;2022-10-18T03:15:59;16.10;99.90
20973;DHT22;10645;52.370;13.314;2022-10-18T03:18:25;16.00;99.90
20973;DHT22;10645;52.370;13.314;2022-10-18T03:20:51;16.00;99.90
20973;DHT22;10645;52.370;13.314;2022-10-18T03:23:18;16.00;99.90
20973;DHT22;10645;52.370;13.314;2022-10-18T03:25:44;16.00;99.90
20973;DHT22;10645;52.370;13.314;2022-10-18T03:28:10;16.00;99.90
20973;DHT22;10645;52.370;13.314;2022-10-18T03:30:36;16.00;99.90
20973;DHT22;10645;52.370;13.314;2022-10-18T03:33:06;15.90;99.90
20973;DHT22;10645;52.370;13.314;2022-10-18T03:35:32;15.90;99.90
20973;DHT22;10645;52.370;13.314;2022-10-18T03:37:59;15.80;99.90
20973;DHT22;10645;52.370;13.314;2022-10-18T03:40:25;15.90;99.90
20973;DHT22;10645;52.370;13.314;2022-10-18T03:42:51;15.80;99.90
20973;DHT22;10645;52.370;13.314;2022-10-18T03:45:17;15.70;99.90
20973;DHT22;10645;52.370;13.314;2022-10-18T03:47:43;15.70;99.90
20973;DHT22;10645;52.370;13.314;2022-10-18T03:50:09;15.70;99.90
20973;DHT22;10645;52.370;13.314;2022-10-18T03:52:35;15.70;99.90
20973;DHT22;10645;52.370;13.314;2022-10-18T03:55:01;15.60;99.90
20973;DHT22;10645;52.370;13.314;2022-10-18T03:57:28;15.60;99.90
20973;DHT22;10645;52.370;13.314;2022-10-18T03:59:54;15.60;99.90
20973;DHT22;10645;52.370;13.314;2022-10-18T04:02:20;15.60;99.90
20973;DHT22;10645;52.370;13.314;2022-10-18T04:04:46;15.60;99.90
20973;DHT22;10645;52.370;13.314;2022-10-18T04:07:12;15.50;99.90
20973;DHT22;10645;52.370;13.314;2022-10-18T04:09:38;15.50;99.90
20973;DHT22;10645;52.370;13.314;2022-10-18T04:12:04;15.40;99.90
20973;DHT22;10645;52.370;13.314;2022-10-18T04:14:30;15.40;99.90
20973;DHT22;10645;52.370;13.314;2022-10-18T04:16:56;15.40;99.90
20973;DHT22;10645;52.370;13.314;2022-10-18T04:19:22;15.30;99.90
20973;DHT22;10645;52.370;13.314;2022-10-18T04:21:49;15.30;99.90
20973;DHT22;10645;52.370;13.314;2022-10-18T04:24:18;15.30;99.90
20973;DHT22;10645;52.370;13.314;2022-10-18T04:26:44;15.30;99.90
20973;DHT22;10645;52.370;13.314;2022-10-18T04:29:10;15.30;99.90
20973;DHT22;10645;52.370;13.314;2022-10-18T04:31:36;15.20;99.90
20973;DHT22;10645;52.370;13.314;2022-10-18T04:34:02;15.20;99.90
20973;DHT22;10645;52.370;13.314;2022-10-18T04:36:30;15.10;99.90
20973;DHT22;10645;52.370;13.314;2022-10-18T04:38:56;15.10;99.90
20973;DHT22;10645;52.370;13.314;2022-10-18T04:41:22;15.10;99.90
20973;DHT22;10645;52.370;13.314;2022-10-18T04:43:48;15.10;99.90
20973;DHT22;10645;52.370;13.314;2022-10-18T04:46:14;15.00;99.90
20973;DHT22;10645;52.370;13.314;2022-10-18T04:48:40;14.90;99.90
20973;DHT22;10645;52.370;13.314;2022-10-18T04:51:06;14.90;99.90
20973;DHT22;10645;52.370;13.314;2022-10-18T04:53:32;14.80;99.90
20973;DHT22;10645;52.370;13.314;2022-10-18T04:55:58;14.80;99.90
20973;DHT22;10645;52.370;13.314;2022-10-18T04:58:24;14.80;99.90
20973;DHT22;10645;52.370;13.314;2022-10-18T05:00:51;14.80;99.90
20973;DHT22;10645;52.370;13.314;2022-10-18T05:03:17;14.70;99.90
20973;DHT22;10645;52.370;13.314;2022-10-18T05:05:43;14.70;99.90
20973;DHT22;10645;52.370;13.314;2022-10-18T05:08:11;14.70;99.90
20973;DHT22;10645;52.370;13.314;2022-10-18T05:10:37;14.70;99.90
20973;DHT22;10645;52.370;13.314;2022-10-18T05:13:03;14.70;99.90
20973;DHT22;10645;52.370;13.314;2022-10-18T05:15:30;14.60;99.90
20973;DHT22;10645;52.370;13.314;2022-10-18T05:17:56;14.60;99.90
20973;DHT22;10645;52.370;13.314;2022-10-18T05:20:22;14.60;99.90
20973;DHT22;10645;52.370;13.314;2022-10-18T05:22:48;14.60;99.90
20973;DHT22;10645;52.370;13.314;2022-10-18T05:25:14;14.50;99.90
20973;DHT22;10645;52.370;13.314;2022-10-18T05:27:40;14.50;99.90
20973;DHT22;10645;52.370;13.314;2022-10-18T05:30:07;14.50;99.90
20973;DHT22;10645;52.370;13.314;2022-10-18T05:32:33;14.40;99.90
20973;DHT22;10645;52.370;13.314;2022-10-18T05:34:59;14.40;99.90
20973;DHT22;10645;52.370;13.314;2022-10-18T05:37:25;14.40;99.90
20973;DHT22;10645;52.370;13.314;2022-10-18T05:39:51;14.50;99.90
20973;DHT22;10645;52.370;13.314;2022-10-18T05:42:17;14.50;99.90
20973;DHT22;10645;52.370;13.314;2022-10-18T05:44:43;14.50;99.90
20973;DHT22;10645;52.370;13.314;2022-10-18T05:47:09;14.60;99.90
20973;DHT22;10645;52.370;13.314;2022-10-18T05:49:35;14.60;99.90
20973;DHT22;10645;52.370;13.314;2022-10-18T05:52:01;14.60;99.90
20973;DHT22;10645;52.370;13.314;2022-10-18T05:54:27;14.60;99.90
20973;DHT22;10645;52.370;13.314;2022-10-18T05:56:53;14.60;99.90
20973;DHT22;10645;52.370;13.314;2022-10-18T05:59:19;14.60;99.90
20973;DHT22;10645;52.370;13.314;2022-10-18T06:01:45;14.60;99.90
20973;DHT22;10645;52.370;13.314;2022-10-18T06:04:12;14.50;99.90
20973;DHT22;10645;52.370;13.314;2022-10-18T06:06:38;14.50;99.90
20973;DHT22;10645;52.370;13.314;2022-10-18T06:09:06;14.50;99.90
20973;DHT22;10645;52.370;13.314;2022-10-18T06:11:32;14.50;99.90
20973;DHT22;10645;52.370;13.314;2022-10-18T06:13:58;14.50;99.90
20973;DHT22;10645;52.370;13.314;2022-10-18T06:16:25;14.50;99.90
20973;DHT22;10645;52.370;13.314;2022-10-18T06:18:54;14.50;99.90
20973;DHT22;10645;52.370;13.314;2022-10-18T06:21:21;14.40;99.90
20973;DHT22;10645;52.370;13.314;2022-10-18T06:23:51;14.40;99.90
20973;DHT22;10645;52.370;13.314;2022-10-18T06:26:18;14.50;99.90
20973;DHT22;10645;52.370;13.314;2022-10-18T06:28:44;14.50;99.90
20973;DHT22;10645;52.370;13.314;2022-10-18T06:31:11;14.50;99.90
20973;DHT22;10645;52.370;13.314;2022-10-18T06:33:37;14.50;99.90
20973;DHT22;10645;52.370;13.314;2022-10-18T06:36:06;14.50;99.90
20973;DHT22;10645;52.370;13.314;2022-10-18T06:38:33;14.50;99.90
20973;DHT22;10645;52.370;13.314;2022-10-18T06:40:59;14.50;99.90
20973;DHT22;10645;52.370;13.314;2022-10-18T06:43:25;14.60;99.90
20973;DHT22;10645;52.370;13.314;2022-10-18T06:45:52;14.60;99.90
20973;DHT22;10645;52.370;13.314;2022-10-18T06:48:19;14.70;99.90
20973;DHT22;10645;52.370;13.314;2022-10-18T06:50:57;14.70;99.90
20973;DHT22;10645;52.370;13.314;2022-10-18T06:53:24;14.80;99.90
20973;DHT22;10645;52.370;13.314;2022-10-18T06:55:51;14.80;99.90
20973;DHT22;10645;52.370;13.314;2022-10-18T06:58:17;14.80;99.90
20973;DHT22;10645;52.370;13.314;2022-10-18T07:00:43;14.80;99.90
20973;DHT22;10645;52.370;13.314;2022-10-18T07:03:10;14.80;99.90
20973;DHT22;10645;52.370;13.314;2022-10-18T07:05:37;14.80;99.90
20973;DHT22;10645;52.370;13.314;2022-10-18T07:08:03;14.80;99.90
20973;DHT22;10645;52.370;13.314;2022-10-18T07:10:29;14.80;99.90
20973;DHT22;10645;52.370;13.314;2022-10-18T07:12:55;14.80;99.90
20973;DHT22;10645;52.370;13.314;2022-10-18T07:15:21;14.80;99.90
20973;DHT22;10645;52.370;13.314;2022-10-18T07:17:48;14.90;99.90
20973;DHT22;10645;52.370;13.314;2022-10-18T07:20:15;14.90;99.90
20973;DHT22;10645;52.370;13.314;2022-10-18T07:22:41;15.00;99.90
20973;DHT22;10645;52.370;13.314;2022-10-18T07:25:07;15.10;99.90
20973;DHT22;10645;52.370;13.314;2022-10-18T07:27:41;15.10;99.90
20973;DHT22;10645;52.370;13.314;2022-10-18T07:30:09;15.20;99.90
20973;DHT22;10645;52.370;13.314;2022-10-18T07:32:36;15.20;99.90
20973;DHT22;10645;52.370;13.314;2022-10-18T07:35:02;15.20;99.90
20973;DHT22;10645;52.370;13.314;2022-10-18T07:37:29;15.30;99.90
20973;DHT22;10645;52.370;13.314;2022-10-18T07:39:55;15.30;99.90
20973;DHT22;10645;52.370;13.314;2022-10-18T07:42:21;15.40;99.90
20973;DHT22;10645;52.370;13.314;2022-10-18T07:44:47;15.40;99.90
20973;DHT22;10645;52.370;13.314;2022-10-18T07:47:13;15.50;99.90
20973;DHT22;10645;52.370;13.314;2022-10-18T07:49:39;15.50;99.90
20973;DHT22;10645;52.370;13.314;2022-10-18T07:52:06;15.50;99.90
20973;DHT22;10645;52.370;13.314;2022-10-18T07:54:32;15.60;99.90
20973;DHT22;10645;52.370;13.314;2022-10-18T07:56:58;15.60;99.90
20973;DHT22;10645;52.370;13.314;2022-10-18T07:59:24;15.70;99.90
20973;DHT22;10645;52.370;13.314;2022-10-18T08:01:50;15.80;99.90
20973;DHT22;10645;52.370;13.314;2022-10-18T08:04:16;15.70;99.90
20973;DHT22;10645;52.370;13.314;2022-10-18T08:06:42;15.80;99.90
20973;DHT22;10645;52.370;13.314;2022-10-18T08:09:08;15.70;99.90
20973;DHT22;10645;52.370;13.314;2022-10-18T08:11:35;15.60;99.90
20973;DHT22;10645;52.370;13.314;2022-10-18T08:14:01;15.60;99.90
20973;DHT22;10645;52.370;13.314;2022-10-18T08:16:27;15.60;99.90
20973;DHT22;10645;52.370;13.314;2022-10-18T08:18:56;15.60;99.90
20973;DHT22;10645;52.370;13.314;2022-10-18T08:21:22;15.60;99.90
20973;DHT22;10645;52.370;13.314;2022-10-18T08:23:49;15.60;99.90
20973;DHT22;10645;52.370;13.314;2022-10-18T08:26:18;15.60;99.90
20973;DHT22;10645;52.370;13.314;2022-10-18T08:28:44;15.60;99.90
20973;DHT22;10645;52.370;13.314;2022-10-18T08:31:12;15.60;99.90
20973;DHT22;10645;52.370;13.314;2022-10-18T08:33:39;15.60;99.90
20973;DHT22;10645;52.370;13.314;2022-10-18T08:36:07;15.60;99.90
20973;DHT22;10645;52.370;13.314;2022-10-18T08:38:35;15.60;99.90
20973;DHT22;10645;52.370;13.314;2022-10-18T08:41:25;15.60;99.90
20973;DHT22;10645;52.370;13.314;2022-10-18T08:44:05;15.60;99.90
20973;DHT22;10645;52.370;13.314;2022-10-18T08:46:34;15.50;99.90
20973;DHT22;10645;52.370;13.314;2022-10-18T08:49:02;15.50;99.90
20973;DHT22;10645;52.370;13.314;2022-10-18T08:54:28;15.40;99.90
20973;DHT22;10645;52.370;13.314;2022-10-18T08:57:01;15.50;99.90
20973;DHT22;10645;52.370;13.314;2022-10-18T08:59:39;15.40;99.90
20973;DHT22;10645;52.370;13.314;2022-10-18T09:05:24;15.40;99.90
20973;DHT22;10645;52.370;13.314;2022-10-18T09:10:49;15.40;99.90
20973;DHT22;10645;52.370;13.314;2022-10-18T09:13:36;15.40;99.90
20973;DHT22;10645;52.370;13.314;2022-10-18T09:16:09;15.40;99.90
20973;DHT22;10645;52.370;13.314;2022-10-18T09:21:42;15.40;99.90
20973;DHT22;10645;52.370;13.314;2022-10-18T09:24:13;15.40;99.90
20973;DHT22;10645;52.370;13.314;2022-10-18T09:26:48;15.40;99.90
20973;DHT22;10645;52.370;13.314;2022-10-18T09:35:15;15.40;99.90
20973;DHT22;10645;52.370;13.314;2022-10-18T09:37:43;15.50;99.90
20973;DHT22;10645;52.370;13.314;2022-10-18T09:45:41;15.50;99.90
20973;DHT22;10645;52.370;13.314;2022-10-18T09:48:44;15.60;99.90
20973;DHT22;10645;52.370;13.314;2022-10-18T09:51:14;15.60;99.90
20973;DHT22;10645;52.370;13.314;2022-10-18T09:53:53;15.60;99.90
20973;DHT22;10645;52.370;13.314;2022-10-18T09:56:53;15.60;99.90
20973;DHT22;10645;52.370;13.314;2022-10-18T09:59:35;15.60;99.90
20973;DHT22;10645;52.370;13.314;2022-10-18T10:02:03;15.60;99.90
20973;DHT22;10645;52.370;13.314;2022-10-18T10:04:30;15.60;99.90
20973;DHT22;10645;52.370;13.314;2022-10-18T10:06:59;15.60;99.90
20973;DHT22;10645;52.370;13.314;2022-10-18T10:09:35;15.50;99.90
20973;DHT22;10645;52.370;13.314;2022-10-18T10:12:02;15.50;99.90
20973;DHT22;10645;52.370;13.314;2022-10-18T10:14:28;15.50;99.90
20973;DHT22;10645;52.370;13.314;2022-10-18T10:17:19;15.50;99.90
20973;DHT22;10645;52.370;13.314;2022-10-18T10:19:56;15.50;99.90
20973;DHT22;10645;52.370;13.314;2022-10-18T10:22:38;15.50;99.90
20973;DHT22;10645;52.370;13.314;2022-10-18T10:25:05;15.50;99.90
20973;DHT22;10645;52.370;13.314;2022-10-18T10:27:37;15.40;99.90
20973;DHT22;10645;52.370;13.314;2022-10-18T10:30:24;15.40;99.90
20973;DHT22;10645;52.370;13.314;2022-10-18T10:32:51;15.40;99.90
20973;DHT22;10645;52.370;13.314;2022-10-18T10:35:29;15.40;99.90
20973;DHT22;10645;52.370;13.314;2022-10-18T10:37:56;15.40;99.90
20973;DHT22;10645;52.370;13.314;2022-10-18T10:40:27;15.40;99.90
20973;DHT22;10645;52.370;13.314;2022-10-18T10:43:06;15.50;99.90
20973;DHT22;10645;52.370;13.314;2022-10-18T10:45:56;15.50;99.90
20973;DHT22;10645;52.370;13.314;2022-10-18T10:48:24;15.50;99.90
20973;DHT22;10645;52.370;13.314;2022-10-18T10:51:03;15.60;99.90
20973;DHT22;10645;52.370;13.314;2022-10-18T10:53:49;15.60;99.90
20973;DHT22;10645;52.370;13.314;2022-10-18T10:56:27;15.70;99.90
20973;DHT22;10645;52.370;13.314;2022-10-18T10:58:57;15.80;99.90
20973;DHT22;10645;52.370;13.314;2022-10-18T11:01:30;15.80;99.90
20973;DHT22;10645;52.370;13.314;2022-10-18T11:04:00;15.90;99.90
20973;DHT22;10645;52.370;13.314;2022-10-18T11:06:42;15.90;99.90
20973;DHT22;10645;52.370;13.314;2022-10-18T11:09:25;15.90;99.90
20973;DHT22;10645;52.370;13.314;2022-10-18T11:12:08;15.90;99.90
20973;DHT22;10645;52.370;13.314;2022-10-18T11:14:40;16.00;99.90
20973;DHT22;10645;52.370;13.314;2022-10-18T11:17:21;16.00;99.90
20973;DHT22;10645;52.370;13.314;2022-10-18T11:22:33;16.00;99.90
20973;DHT22;10645;52.370;13.314;2022-10-18T11:25:03;16.00;99.90
20973;DHT22;10645;52.370;13.314;2022-10-18T11:27:38;16.00;99.90
20973;DHT22;10645;52.370;13.314;2022-10-18T11:36:08;16.00;99.90
20973;DHT22;10645;52.370;13.314;2022-10-18T11:38:56;15.90;99.90
20973;DHT22;10645;52.370;13.314;2022-10-18T11:44:23;16.00;99.90
20973;DHT22;10645;52.370;13.314;2022-10-18T11:47:04;16.00;99.90
20973;DHT22;10645;52.370;13.314;2022-10-18T11:49:56;16.10;99.90
20973;DHT22;10645;52.370;13.314;2022-10-18T11:55:49;16.20;99.90
20973;DHT22;10645;52.370;13.314;2022-10-18T12:01:01;16.30;99.90
20973;DHT22;10645;52.370;13.314;2022-10-18T12:06:20;16.40;99.90
20973;DHT22;10645;52.370;13.314;2022-10-18T12:08:53;16.50;99.90
20973;DHT22;10645;52.370;13.314;2022-10-18T12:11:27;16.60;99.90
20973;DHT22;10645;52.370;13.314;2022-10-18T12:14:00;16.60;99.90
20973;DHT22;10645;52.370;13.314;2022-10-18T12:16:31;16.60;99.90
20973;DHT22;10645;52.370;13.314;2022-10-18T12:19:00;16.60;99.90
20973;DHT22;10645;52.370;13.314;2022-10-18T12:21:30;16.50;99.90
20973;DHT22;10645;52.370;13.314;2022-10-18T12:24:11;16.40;99.90
20973;DHT22;10645;52.370;13.314;2022-10-18T12:26:38;16.50;99.90
20973;DHT22;10645;52.370;13.314;2022-10-18T12:29:19;16.40;99.90
20973;DHT22;10645;52.370;13.314;2022-10-18T12:31:54;16.50;99.90
20973;DHT22;10645;52.370;13.314;2022-10-18T12:37:11;16.60;99.90
20973;DHT22;10645;52.370;13.314;2022-10-18T12:39:46;16.60;99.90
20973;DHT22;10645;52.370;13.314;2022-10-18T12:42:19;16.50;99.90
20973;DHT22;10645;52.370;13.314;2022-10-18T12:44:47;16.50;99.90
20973;DHT22;10645;52.370;13.314;2022-10-18T12:47:22;16.50;99.90
20973;DHT22;10645;52.370;13.314;2022-10-18T12:49:57;16.40;99.90
20973;DHT22;10645;52.370;13.314;2022-10-18T12:52:26;16.40;99.90
20973;DHT22;10645;52.370;13.314;2022-10-18T13:19:22;16.30;99.90
20973;DHT22;10645;52.370;13.314;2022-10-18T13:21:58;16.40;99.90
20973;DHT22;10645;52.370;13.314;2022-10-18T13:24:40;16.40;99.90
20973;DHT22;10645;52.370;13.314;2022-10-18T13:28:05;16.40;99.90
20973;DHT22;10645;52.370;13.314;2022-10-18T13:30:18;16.40;99.90
20973;DHT22;10645;52.370;13.314;2022-10-18T13:38:04;16.50;99.90
20973;DHT22;10645;52.370;13.314;2022-10-18T13:40:41;16.60;99.90
20973;DHT22;10645;52.370;13.314;2022-10-18T13:43:47;16.60;99.90
20973;DHT22;10645;52.370;13.314;2022-10-18T13:46:19;16.60;99.90
20973;DHT22;10645;52.370;13.314;2022-10-18T13:48:47;16.70;99.90
20973;DHT22;10645;52.370;13.314;2022-10-18T13:54:00;16.90;99.90
20973;DHT22;10645;52.370;13.314;2022-10-18T13:56:45;17.00;99.90
20973;DHT22;10645;52.370;13.314;2022-10-18T13:59:56;17.00;99.90
20973;DHT22;10645;52.370;13.314;2022-10-18T14:02:50;17.00;99.90
20973;DHT22;10645;52.370;13.314;2022-10-18T14:08:23;17.00;99.90
20973;DHT22;10645;52.370;13.314;2022-10-18T14:16:57;17.00;99.90
20973;DHT22;10645;52.370;13.314;2022-10-18T14:22:22;17.00;99.90
20973;DHT22;10645;52.370;13.314;2022-10-18T14:24:54;17.10;99.90
20973;DHT22;10645;52.370;13.314;2022-10-18T14:27:28;17.00;99.90
20973;DHT22;10645;52.370;13.314;2022-10-18T14:30:26;16.90;99.90
20973;DHT22;10645;52.370;13.314;2022-10-18T14:32:52;16.80;99.90
20973;DHT22;10645;52.370;13.314;2022-10-18T14:35:27;16.80;99.90
20973;DHT22;10645;52.370;13.314;2022-10-18T14:37:54;16.70;99.90
20973;DHT22;10645;52.370;13.314;2022-10-18T14:45:33;16.40;99.90
20973;DHT22;10645;52.370;13.314;2022-10-18T14:48:12;16.30;99.90
20973;DHT22;10645;52.370;13.314;2022-10-18T14:50:39;16.20;99.90
20973;DHT22;10645;52.370;13.314;2022-10-18T14:53:10;16.10;99.90
20973;DHT22;10645;52.370;13.314;2022-10-18T14:55:38;16.10;99.90
20973;DHT22;10645;52.370;13.314;2022-10-18T14:58:13;15.90;99.90
20973;DHT22;10645;52.370;13.314;2022-10-18T15:00:40;15.80;99.90
20973;DHT22;10645;52.370;13.314;2022-10-18T15:03:11;15.80;99.90
20973;DHT22;10645;52.370;13.314;2022-10-18T15:05:54;15.70;99.90
20973;DHT22;10645;52.370;13.314;2022-10-18T15:08:21;15.60;99.90
20973;DHT22;10645;52.370;13.314;2022-10-18T15:10:48;15.60;99.90
20973;DHT22;10645;52.370;13.314;2022-10-18T15:13:15;15.50;99.90
20973;DHT22;10645;52.370;13.314;2022-10-18T15:15:42;15.40;99.90
20973;DHT22;10645;52.370;13.314;2022-10-18T15:18:23;15.40;99.90
20973;DHT22;10645;52.370;13.314;2022-10-18T15:21:18;15.40;99.90
20973;DHT22;10645;52.370;13.314;2022-10-18T15:23:45;15.30;99.90
20973;DHT22;10645;52.370;13.314;2022-10-18T15:26:14;15.30;99.90
20973;DHT22;10645;52.370;13.314;2022-10-18T15:28:43;15.30;99.90
20973;DHT22;10645;52.370;13.314;2022-10-18T15:31:33;15.30;99.90
20973;DHT22;10645;52.370;13.314;2022-10-18T15:34:23;15.30;99.90
20973;DHT22;10645;52.370;13.314;2022-10-18T15:36:53;15.20;99.90
20973;DHT22;10645;52.370;13.314;2022-10-18T15:39:25;15.10;99.90
20973;DHT22;10645;52.370;13.314;2022-10-18T15:41:56;15.00;99.90
20973;DHT22;10645;52.370;13.314;2022-10-18T15:44:31;14.90;99.90
20973;DHT22;10645;52.370;13.314;2022-10-18T15:47:15;14.80;99.90
20973;DHT22;10645;52.370;13.314;2022-10-18T15:49:48;14.80;99.90
20973;DHT22;10645;52.370;13.314;2022-10-18T15:52:29;14.60;99.90
20973;DHT22;10645;52.370;13.314;2022-10-18T15:54:56;14.60;99.90
20973;DHT22;10645;52.370;13.314;2022-10-18T15:57:23;14.40;99.90
20973;DHT22;10645;52.370;13.314;2022-10-18T16:00:15;14.30;99.90
20973;DHT22;10645;52.370;13.314;2022-10-18T16:02:42;14.20;99.90
20973;DHT22;10645;52.370;13.314;2022-10-18T16:05:15;14.10;99.90
20973;DHT22;10645;52.370;13.314;2022-10-18T16:07:41;14.00;99.90
20973;DHT22;10645;52.370;13.314;2022-10-18T16:10:12;14.00;99.90
20973;DHT22;10645;52.370;13.314;2022-10-18T16:12:38;13.90;99.90
20973;DHT22;10645;52.370;13.314;2022-10-18T16:15:05;13.80;99.90
20973;DHT22;10645;52.370;13.314;2022-10-18T16:17:31;13.60;99.90
20973;DHT22;10645;52.370;13.314;2022-10-18T16:19:57;13.50;99.90
20973;DHT22;10645;52.370;13.314;2022-10-18T16:22:23;13.30;99.90
20973;DHT22;10645;52.370;13.314;2022-10-18T16:24:49;13.20;99.90
20973;DHT22;10645;52.370;13.314;2022-10-18T16:27:17;13.00;99.90
20973;DHT22;10645;52.370;13.314;2022-10-18T16:29:44;12.90;99.90
20973;DHT22;10645;52.370;13.314;2022-10-18T16:32:10;12.80;99.90
20973;DHT22;10645;52.370;13.314;2022-10-18T16:34:36;12.60;99.90
20973;DHT22;10645;52.370;13.314;2022-10-18T16:37:02;12.40;99.90
20973;DHT22;10645;52.370;13.314;2022-10-18T16:39:28;12.30;99.90
20973;DHT22;10645;52.370;13.314;2022-10-18T16:41:59;12.20;99.90
20973;DHT22;10645;52.370;13.314;2022-10-18T16:44:25;12.00;99.90
20973;DHT22;10645;52.370;13.314;2022-10-18T16:46:51;11.90;99.90
20973;DHT22;10645;52.370;13.314;2022-10-18T16:49:22;11.80;99.90
20973;DHT22;10645;52.370;13.314;2022-10-18T16:51:49;11.70;99.90
20973;DHT22;10645;52.370;13.314;2022-10-18T16:54:15;11.60;99.90
20973;DHT22;10645;52.370;13.314;2022-10-18T16:56:42;11.50;99.90
20973;DHT22;10645;52.370;13.314;2022-10-18T17:01:41;11.40;99.90
20973;DHT22;10645;52.370;13.314;2022-10-18T17:04:07;11.20;99.90
20973;DHT22;10645;52.370;13.314;2022-10-18T17:06:33;11.10;99.90
20973;DHT22;10645;52.370;13.314;2022-10-18T17:08:59;11.00;99.90
20973;DHT22;10645;52.370;13.314;2022-10-18T17:11:27;10.90;99.90
20973;DHT22;10645;52.370;13.314;2022-10-18T17:13:53;10.80;99.90
20973;DHT22;10645;52.370;13.314;2022-10-18T17:16:25;10.80;99.90
20973;DHT22;10645;52.370;13.314;2022-10-18T17:18:54;10.70;99.90
20973;DHT22;10645;52.370;13.314;2022-10-18T17:21:21;10.60;99.90
20973;DHT22;10645;52.370;13.314;2022-10-18T17:23:47;10.50;99.90
20973;DHT22;10645;52.370;13.314;2022-10-18T17:26:16;10.40;99.90
20973;DHT22;10645;52.370;13.314;2022-10-18T17:28:42;10.30;99.90
20973;DHT22;10645;52.370;13.314;2022-10-18T17:31:08;10.20;99.90